createdAt,value
2022-12-01T00:02:55.461Z,7.80
2022-12-01T00:13:00.311Z,9.27
2022-12-01T00:23:05.008Z,8.03
2022-12-01T00:33:07.948Z,7.17
2022-12-01T00:43:12.370Z,9.60
2022-12-01T00:53:15.467Z,11.43
2022-12-01T01:03:19.868Z,12.57
2022-12-01T01:13:22.823Z,13.73
2022-12-01T01:23:27.608Z,13.40
2022-12-01T01:33:30.958Z,12.73
2022-12-01T01:43:47.576Z,12.43
2022-12-01T01:53:54.899Z,13.17
2022-12-01T02:03:59.624Z,13.73
2022-12-01T02:14:14.028Z,11.80
2022-12-01T02:24:49.407Z,12.60
2022-12-01T02:35:00.661Z,12.10
2022-12-01T02:45:06.639Z,11.17
2022-12-01T02:55:11.276Z,11.67
2022-12-01T03:05:20.961Z,11.83
2022-12-01T03:15:34.166Z,13.13
2022-12-01T03:25:41.143Z,13.67
2022-12-01T03:35:54.600Z,13.13
2022-12-01T03:46:05.895Z,15.03
2022-12-01T03:56:11.524Z,15.90
2022-12-01T04:06:15.225Z,18.50
2022-12-01T04:16:19.585Z,18.80
2022-12-01T04:26:22.519Z,19.87
2022-12-01T04:36:28.057Z,20.30
2022-12-01T04:46:30.942Z,19.90
2022-12-01T04:56:35.360Z,21.00
2022-12-01T05:06:38.219Z,20.70
2022-12-01T05:16:42.901Z,20.53
2022-12-01T05:26:46.438Z,20.13
2022-12-01T05:36:50.800Z,21.07
2022-12-01T05:46:53.650Z,20.27
2022-12-01T05:56:57.930Z,17.73
2022-12-01T06:07:00.859Z,18.13
2022-12-01T06:17:05.569Z,18.80
2022-12-01T06:27:08.606Z,19.60
2022-12-01T06:37:15.755Z,20.13
2022-12-01T06:47:18.643Z,20.20
2022-12-01T06:57:22.926Z,21.40
2022-12-01T07:07:26.434Z,20.83
2022-12-01T07:17:31.476Z,19.63
2022-12-01T07:27:34.814Z,18.70
2022-12-01T07:37:39.201Z,18.73
2022-12-01T07:47:42.292Z,17.50
2022-12-01T07:57:46.819Z,18.20
2022-12-01T08:07:49.975Z,17.87
2022-12-01T08:17:54.380Z,16.50
2022-12-01T08:27:57.848Z,17.97
2022-12-01T08:38:02.255Z,17.87
2022-12-01T08:58:48.252Z,18.70
2022-12-01T09:08:51.176Z,18.53
2022-12-01T09:18:56.949Z,19.23
2022-12-01T09:29:02.128Z,17.33
2022-12-01T09:39:07.372Z,17.00
2022-12-01T09:49:17.731Z,16.30
2022-12-01T09:59:25.143Z,16.50
2022-12-01T10:09:35.637Z,16.07
2022-12-01T10:19:46.020Z,15.03
2022-12-01T10:29:59.851Z,14.70
2022-12-01T10:40:04.729Z,16.93
2022-12-01T10:50:09.777Z,14.60
2022-12-01T11:00:57.399Z,13.40
2022-12-01T11:10:50.102Z,11.80
2022-12-01T11:21:09.612Z,8.40
2022-12-01T11:31:13.669Z,8.67
2022-12-01T11:41:29.342Z,8.20
2022-12-01T11:51:37.747Z,7.60
2022-12-01T12:02:05.502Z,8.60
2022-12-01T12:12:21.460Z,8.37
2022-12-01T12:22:35.016Z,9.40
2022-12-01T12:32:55.266Z,11.57
2022-12-01T12:43:19.654Z,13.20
2022-12-01T12:53:27.716Z,13.07
2022-12-01T13:03:40.026Z,15.53
2022-12-01T13:14:02.945Z,14.97
2022-12-01T13:24:11.972Z,14.30
2022-12-01T13:34:23.816Z,15.93
2022-12-01T13:44:33.051Z,15.33
2022-12-01T13:54:38.324Z,17.10
2022-12-01T14:04:42.735Z,18.50
2022-12-01T14:14:53.990Z,18.63
2022-12-01T14:24:58.831Z,20.57
2022-12-01T14:35:06.385Z,19.70
2022-12-01T14:45:17.032Z,20.50
2022-12-01T14:55:22.908Z,21.57
2022-12-01T15:05:29.414Z,22.47
2022-12-01T15:15:32.440Z,21.27
2022-12-01T15:25:37.745Z,19.60
2022-12-01T15:35:41.531Z,20.67
2022-12-01T15:45:52.153Z,20.20
2022-12-01T15:55:59.202Z,20.40
2022-12-01T16:06:03.867Z,27.47
2022-12-01T16:16:30.792Z,20.63
2022-12-01T16:26:35.276Z,20.10
2022-12-01T16:36:38.118Z,22.53
2022-12-01T16:46:43.064Z,22.80
2022-12-01T16:56:46.145Z,22.80
2022-12-01T17:06:50.761Z,21.60
2022-12-01T17:16:53.888Z,22.63
2022-12-01T17:26:58.221Z,23.17
2022-12-01T17:37:01.576Z,23.13
2022-12-01T17:47:06.160Z,21.63
2022-12-01T17:57:09.137Z,20.50
2022-12-01T18:07:13.593Z,20.40
2022-12-01T18:17:16.998Z,20.50
2022-12-01T18:27:21.444Z,20.53
2022-12-01T18:37:24.626Z,22.07
2022-12-01T18:47:29.470Z,25.33
2022-12-01T18:57:32.627Z,25.07
2022-12-01T19:07:36.954Z,21.80
2022-12-01T19:17:40.227Z,22.60
2022-12-01T19:27:44.510Z,23.67
2022-12-01T19:37:47.363Z,23.63
2022-12-01T19:47:53.600Z,22.90
2022-12-01T19:57:57.433Z,22.37
2022-12-01T20:08:02.885Z,22.77
2022-12-01T20:18:06.182Z,23.10
2022-12-01T20:28:10.606Z,22.83
2022-12-01T20:38:13.606Z,23.07
2022-12-01T20:48:18.747Z,23.80
2022-12-01T20:58:21.810Z,22.00
2022-12-01T21:08:26.383Z,19.87
2022-12-01T21:18:35.723Z,18.90
2022-12-01T21:28:40.310Z,18.10
2022-12-01T21:38:43.938Z,19.87
2022-12-01T21:48:49.118Z,18.87
2022-12-01T21:58:53.527Z,18.20
2022-12-01T22:09:00.891Z,19.37
2022-12-01T22:19:24.356Z,18.87
2022-12-01T22:29:31.391Z,21.07
2022-12-01T22:39:35.089Z,19.30
2022-12-01T22:49:39.854Z,18.73
2022-12-01T22:59:44.844Z,19.87
2022-12-01T23:09:49.681Z,19.87
2022-12-01T23:19:55.118Z,18.77
2022-12-01T23:30:00.236Z,18.70
2022-12-01T23:40:09.328Z,16.20
